createdAt,value
2019-02-21T00:03:35.909Z,22.30
2019-02-21T00:07:40.661Z,26.70
2019-02-21T00:11:45.524Z,27.87
2019-02-21T00:15:50.269Z,25.08
2019-02-21T00:19:55.193Z,23.80
2019-02-21T00:24:00.008Z,23.05
2019-02-21T00:28:05.097Z,19.42
2019-02-21T00:32:09.960Z,22.62
2019-02-21T00:36:14.715Z,28.23
2019-02-21T00:40:19.649Z,21.20
2019-02-21T00:44:24.387Z,21.00
2019-02-21T00:48:29.212Z,19.10
2019-02-21T00:52:34.168Z,23.35
2019-02-21T00:56:38.993Z,22.98
2019-02-21T01:00:46.724Z,21.17
2019-02-21T01:04:50.412Z,29.12
2019-02-21T01:08:55.268Z,22.85
2019-02-21T01:13:00.359Z,23.70
2019-02-21T01:17:05.301Z,25.85
2019-02-21T01:21:11.197Z,25.40
2019-02-21T01:25:15.939Z,25.85
2019-02-21T01:29:20.756Z,23.47
2019-02-21T01:33:25.580Z,25.88
2019-02-21T01:37:30.310Z,21.00
2019-02-21T01:41:35.417Z,26.05
2019-02-21T01:45:40.310Z,21.62
2019-02-21T01:49:45.115Z,26.37
2019-02-21T01:53:49.859Z,20.68
2019-02-21T01:57:54.601Z,20.15
2019-02-21T02:01:59.581Z,22.22
2019-02-21T02:06:04.531Z,30.15
2019-02-21T02:10:10.042Z,24.85
2019-02-21T02:14:14.859Z,28.57
2019-02-21T02:18:19.781Z,26.45
2019-02-21T02:22:24.779Z,23.98
2019-02-21T02:26:29.702Z,23.77
2019-02-21T02:30:34.815Z,26.12
2019-02-21T02:34:39.626Z,22.52
2019-02-21T02:38:44.467Z,23.10
2019-02-21T02:42:49.440Z,27.10
2019-02-21T02:46:54.306Z,29.48
2019-02-21T02:50:59.216Z,27.55
2019-02-21T02:55:04.285Z,29.42
2019-02-21T02:59:09.182Z,24.75
2019-02-21T03:03:14.021Z,25.97
2019-02-21T03:07:18.839Z,26.02
2019-02-21T03:11:23.790Z,21.93
2019-02-21T03:15:28.609Z,26.93
2019-02-21T03:19:33.629Z,27.35
2019-02-21T03:23:38.492Z,23.05
2019-02-21T03:27:43.393Z,29.23
2019-02-21T03:31:54.170Z,24.02
2019-02-21T03:35:54.661Z,28.40
2019-02-21T03:40:00.683Z,32.45
2019-02-21T03:44:05.519Z,24.18
2019-02-21T03:48:10.384Z,27.80
2019-02-21T03:52:15.203Z,23.95
2019-02-21T03:56:20.085Z,26.33
2019-02-21T04:00:25.261Z,25.45
2019-02-21T04:04:30.152Z,27.32
2019-02-21T04:08:34.954Z,20.17
2019-02-21T04:12:40.013Z,27.58
2019-02-21T04:16:44.981Z,26.05
2019-02-21T04:20:50.015Z,27.73
2019-02-21T04:24:54.736Z,25.72
2019-02-21T04:28:59.484Z,21.20
2019-02-21T04:33:04.601Z,24.85
2019-02-21T04:37:09.412Z,25.90
2019-02-21T04:41:14.508Z,24.10
2019-02-21T04:45:19.248Z,22.80
2019-02-21T04:49:24.172Z,26.10
2019-02-21T04:53:28.919Z,26.00
2019-02-21T04:57:33.660Z,22.22
2019-02-21T05:01:40.351Z,25.50
2019-02-21T05:05:45.337Z,27.10
2019-02-21T05:09:57.928Z,27.73
2019-02-21T05:13:57.910Z,21.20
2019-02-21T05:18:02.759Z,21.95
2019-02-21T05:22:07.737Z,26.05
2019-02-21T05:26:15.491Z,23.80
2019-02-21T05:30:23.150Z,27.58
2019-02-21T05:34:41.509Z,35.80
2019-02-21T05:39:18.455Z,31.95
2019-02-21T05:43:40.966Z,30.30
2019-02-21T05:48:10.776Z,28.57
2019-02-21T05:52:23.145Z,26.23
2019-02-21T05:56:52.811Z,24.05
2019-02-21T06:01:03.633Z,24.12
2019-02-21T06:05:30.258Z,25.15
2019-02-21T06:10:01.141Z,21.10
2019-02-21T06:14:24.083Z,24.47
2019-02-21T06:18:47.017Z,31.07
2019-02-21T06:23:09.720Z,26.52
2019-02-21T06:27:45.506Z,23.25
2019-02-21T06:31:50.314Z,24.43
2019-02-21T06:35:55.288Z,22.73
2019-02-21T06:40:02.476Z,22.07
2019-02-21T06:44:07.338Z,24.47
2019-02-21T06:48:12.095Z,23.83
2019-02-21T06:52:16.948Z,21.30
2019-02-21T06:56:21.726Z,26.68
2019-02-21T07:00:26.608Z,27.42
2019-02-21T07:04:33.302Z,24.72
2019-02-21T07:08:40.041Z,25.37
2019-02-21T07:12:44.541Z,23.35
2019-02-21T07:16:49.269Z,23.62
2019-02-21T07:20:54.092Z,21.05
2019-02-21T07:25:04.157Z,23.47
2019-02-21T07:29:08.896Z,21.42
2019-02-21T07:33:14.004Z,22.55
2019-02-21T07:37:19.203Z,23.45
2019-02-21T07:41:24.448Z,25.75
2019-02-21T07:45:29.248Z,25.52
2019-02-21T07:49:34.116Z,21.30
2019-02-21T07:53:38.843Z,23.55
2019-02-21T07:57:43.580Z,22.35
2019-02-21T08:01:49.295Z,25.52
2019-02-21T08:05:54.090Z,21.37
2019-02-21T08:09:59.128Z,22.80
2019-02-21T08:14:04.350Z,24.00
2019-02-21T08:18:09.229Z,27.77
2019-02-21T08:22:13.982Z,24.60
2019-02-21T08:26:20.085Z,23.30
2019-02-21T08:30:28.997Z,27.45
2019-02-21T08:34:37.059Z,20.52
2019-02-21T08:38:41.788Z,24.40
2019-02-21T08:42:46.623Z,23.38
2019-02-21T08:46:53.392Z,27.07
2019-02-21T08:50:57.799Z,27.35
2019-02-21T08:55:02.534Z,30.08
2019-02-21T08:59:07.288Z,31.57
2019-02-21T09:03:12.480Z,30.62
2019-02-21T09:07:17.300Z,35.70
2019-02-21T09:11:22.369Z,28.87
2019-02-21T09:15:27.256Z,26.12
2019-02-21T09:19:32.169Z,27.35
2019-02-21T09:23:36.969Z,29.40
2019-02-21T09:27:41.791Z,25.25
2019-02-21T09:31:46.621Z,29.55
2019-02-21T09:35:51.417Z,34.65
2019-02-21T09:39:56.179Z,31.70
2019-02-21T09:44:00.917Z,27.55
2019-02-21T09:48:05.657Z,27.07
2019-02-21T09:52:10.392Z,31.20
2019-02-21T09:56:15.128Z,34.55
2019-02-21T10:00:20.390Z,33.13
2019-02-21T10:04:32.103Z,29.07
2019-02-21T10:08:31.645Z,27.42
2019-02-21T10:12:36.584Z,25.40
2019-02-21T10:16:41.338Z,23.07
2019-02-21T10:20:46.241Z,20.57
2019-02-21T10:24:51.360Z,28.62
2019-02-21T10:28:57.272Z,25.15
2019-02-21T10:33:02.104Z,28.27
2019-02-21T10:37:06.889Z,26.27
2019-02-21T10:41:11.668Z,25.88
2019-02-21T10:45:17.661Z,25.32
2019-02-21T10:49:22.578Z,28.07
2019-02-21T10:53:27.324Z,21.87
2019-02-21T10:57:32.168Z,23.12
2019-02-21T11:01:36.908Z,20.17
2019-02-21T11:05:41.727Z,28.30
2019-02-21T11:09:46.548Z,24.87
2019-02-21T11:13:51.386Z,24.35
2019-02-21T11:17:56.208Z,29.55
2019-02-21T11:22:01.047Z,29.02
2019-02-21T11:26:06.527Z,22.17
2019-02-21T11:30:14.039Z,29.12
2019-02-21T11:34:21.495Z,22.60
2019-02-21T11:38:26.309Z,28.57
2019-02-21T11:42:31.324Z,26.12
2019-02-21T11:46:36.065Z,18.87
2019-02-21T11:50:40.811Z,28.27
2019-02-21T11:54:45.552Z,28.05
2019-02-21T11:58:52.589Z,31.70
2019-02-21T12:02:57.507Z,28.40
2019-02-21T12:07:02.306Z,27.80
2019-02-21T12:11:07.140Z,25.10
2019-02-21T12:15:13.444Z,25.10
2019-02-21T12:19:18.189Z,23.30
2019-02-21T12:23:23.119Z,27.35
2019-02-21T12:27:27.849Z,23.45
2019-02-21T12:31:32.616Z,29.95
2019-02-21T12:35:37.506Z,26.35
2019-02-21T12:39:42.275Z,30.57
2019-02-21T12:43:47.014Z,28.90
2019-02-21T12:47:53.821Z,30.68
2019-02-21T12:51:58.178Z,26.68
2019-02-21T12:56:02.950Z,23.87
2019-02-21T13:00:11.595Z,29.25
2019-02-21T13:04:16.340Z,30.35
2019-02-21T13:08:21.205Z,24.65
2019-02-21T13:12:25.963Z,26.25
2019-02-21T13:16:31.081Z,25.43
2019-02-21T13:20:35.848Z,30.05
2019-02-21T13:24:40.673Z,30.52
2019-02-21T13:28:45.493Z,27.25
2019-02-21T13:32:50.221Z,31.42
2019-02-21T13:36:55.110Z,24.60
2019-02-21T13:40:59.879Z,28.20
2019-02-21T13:45:05.052Z,29.82
2019-02-21T13:49:09.868Z,24.82
2019-02-21T13:53:14.600Z,32.03
2019-02-21T13:57:19.351Z,31.85
2019-02-21T14:01:24.173Z,30.88
2019-02-21T14:05:28.908Z,28.80
2019-02-21T14:09:33.660Z,28.30
2019-02-21T14:13:38.389Z,30.12
2019-02-21T14:17:43.193Z,30.95
2019-02-21T14:21:47.953Z,23.35
2019-02-21T14:25:52.695Z,27.52
2019-02-21T14:29:57.497Z,24.47
2019-02-21T14:34:02.333Z,22.62
2019-02-21T14:38:07.188Z,24.75
2019-02-21T14:42:11.947Z,24.52
2019-02-21T14:46:16.703Z,23.30
2019-02-21T14:50:21.524Z,22.65
2019-02-21T14:54:26.373Z,21.62
2019-02-21T14:58:31.099Z,16.67
2019-02-21T15:02:35.867Z,11.53
2019-02-21T15:06:40.673Z,16.12
2019-02-21T15:10:45.453Z,12.88
2019-02-21T15:14:50.248Z,14.53
2019-02-21T15:18:55.413Z,13.13
2019-02-21T15:23:00.616Z,14.85
2019-02-21T15:27:08.555Z,17.48
2019-02-21T15:31:11.951Z,10.18
2019-02-21T15:35:19.273Z,14.35
2019-02-21T15:39:23.265Z,10.72
2019-02-21T15:43:28.191Z,15.72
2019-02-21T15:47:33.017Z,16.23
2019-02-21T15:51:37.789Z,12.13
2019-02-21T15:55:42.531Z,17.87
2019-02-21T15:59:47.339Z,16.02
2019-02-21T16:03:52.061Z,17.05
2019-02-21T16:07:57.040Z,13.70
2019-02-21T16:12:01.945Z,18.62
2019-02-21T16:16:07.008Z,26.10
2019-02-21T16:20:13.077Z,16.42
2019-02-21T16:24:19.009Z,17.95
2019-02-21T16:28:24.711Z,12.43
2019-02-21T16:32:29.541Z,18.50
2019-02-21T16:36:34.384Z,19.65
2019-02-21T16:40:39.231Z,14.85
2019-02-21T16:44:44.030Z,15.98
2019-02-21T16:48:48.768Z,20.12
2019-02-21T16:52:53.532Z,21.10
2019-02-21T16:56:58.348Z,16.25
2019-02-21T17:01:03.103Z,23.07
2019-02-21T17:05:08.456Z,15.78
2019-02-21T17:09:13.624Z,22.42
2019-02-21T17:13:18.471Z,21.80
2019-02-21T17:17:23.224Z,16.87
2019-02-21T17:21:28.349Z,17.25
2019-02-21T17:25:33.099Z,20.37
2019-02-21T17:29:37.822Z,26.30
2019-02-21T17:33:42.875Z,20.80
2019-02-21T17:37:47.696Z,19.87
2019-02-21T17:41:53.727Z,20.60
2019-02-21T17:45:58.456Z,16.05
2019-02-21T17:50:03.736Z,17.02
2019-02-21T17:54:09.770Z,20.37
2019-02-21T17:58:17.110Z,30.95
2019-02-21T18:02:21.356Z,35.65
2019-02-21T18:06:26.208Z,21.10
2019-02-21T18:10:31.002Z,22.82
2019-02-21T18:14:35.816Z,18.75
2019-02-21T18:18:40.640Z,24.50
2019-02-21T18:22:45.534Z,24.07
2019-02-21T18:26:50.298Z,25.37
2019-02-21T18:30:55.182Z,24.57
2019-02-21T18:35:00.310Z,24.40
2019-02-21T18:39:08.056Z,27.95
2019-02-21T18:43:13.375Z,23.62
2019-02-21T18:47:18.192Z,25.00
2019-02-21T18:51:23.194Z,24.23
2019-02-21T18:55:28.023Z,31.45
2019-02-21T18:59:32.835Z,24.50
2019-02-21T19:03:38.825Z,26.97
2019-02-21T19:07:43.792Z,26.00
2019-02-21T19:11:48.601Z,30.92
2019-02-21T19:15:55.055Z,29.70
2019-02-21T19:19:59.863Z,28.95
2019-02-21T19:24:04.757Z,27.37
2019-02-21T19:28:09.551Z,26.62
2019-02-21T19:32:16.668Z,23.92
2019-02-21T19:36:21.844Z,35.30
2019-02-21T19:40:28.324Z,34.23
2019-02-21T19:44:33.437Z,32.53
2019-02-21T19:48:38.573Z,30.95
2019-02-21T19:52:43.543Z,30.68
2019-02-21T19:56:48.681Z,36.03
2019-02-21T20:00:54.507Z,28.92
2019-02-21T20:04:59.707Z,34.48
2019-02-21T20:09:06.479Z,35.08
2019-02-21T20:13:15.161Z,30.32
2019-02-21T20:17:20.376Z,32.17
2019-02-21T20:21:25.316Z,30.05
2019-02-21T20:25:31.160Z,30.80
2019-02-21T20:29:36.634Z,30.75
2019-02-21T20:33:41.589Z,33.18
2019-02-21T20:37:46.496Z,28.17
2019-02-21T20:41:51.465Z,31.30
2019-02-21T20:45:56.361Z,27.07
2019-02-21T20:50:01.385Z,31.33
2019-02-21T20:54:06.236Z,31.87
2019-02-21T20:58:11.855Z,31.23
2019-02-21T21:02:17.020Z,30.10
2019-02-21T21:06:22.008Z,34.55
2019-02-21T21:10:27.108Z,37.67
2019-02-21T21:14:32.097Z,39.13
2019-02-21T21:18:37.147Z,34.83
2019-02-21T21:22:42.452Z,29.12
2019-02-21T21:26:47.231Z,34.23
2019-02-21T21:30:52.320Z,38.23
2019-02-21T21:34:57.068Z,38.25
2019-02-21T21:39:01.952Z,38.95
2019-02-21T21:43:08.508Z,36.95
2019-02-21T21:47:13.233Z,37.42
2019-02-21T21:51:18.223Z,37.23
2019-02-21T21:55:23.101Z,34.38
2019-02-21T21:59:27.915Z,35.33
2019-02-21T22:03:33.050Z,29.10
2019-02-21T22:07:37.893Z,35.68
2019-02-21T22:11:42.785Z,37.05
2019-02-21T22:15:47.663Z,32.33
2019-02-21T22:19:52.944Z,33.18
2019-02-21T22:23:57.757Z,32.15
2019-02-21T22:28:02.560Z,26.65
2019-02-21T22:32:07.653Z,36.70
2019-02-21T22:36:12.544Z,31.93
2019-02-21T22:40:17.674Z,29.23
2019-02-21T22:44:22.501Z,33.60
2019-02-21T22:48:27.316Z,30.15
2019-02-21T22:52:32.313Z,30.60
2019-02-21T22:56:37.363Z,24.02
2019-02-21T23:00:59.024Z,27.55
2019-02-21T23:05:45.328Z,30.72
2019-02-21T23:09:51.692Z,29.63
2019-02-21T23:13:56.896Z,28.87
2019-02-21T23:18:01.848Z,30.72
2019-02-21T23:22:06.804Z,28.67
2019-02-21T23:26:12.044Z,30.40
2019-02-21T23:30:17.105Z,28.30
2019-02-21T23:34:32.815Z,27.65
2019-02-21T23:38:37.547Z,32.70
2019-02-21T23:42:42.660Z,30.55
2019-02-21T23:46:48.339Z,30.72
2019-02-21T23:50:53.283Z,27.27
2019-02-21T23:54:58.185Z,30.20
2019-02-21T23:59:02.921Z,27.67
